createdAt,value
2022-08-12T00:02:05.148Z,12.06
2022-08-12T00:04:50.143Z,12.06
2022-08-12T00:07:35.910Z,12.02
2022-08-12T00:10:21.041Z,11.94
2022-08-12T00:13:06.213Z,11.87
2022-08-12T00:15:54.075Z,11.84
2022-08-12T00:18:39.212Z,11.83
2022-08-12T00:21:24.576Z,11.85
2022-08-12T00:24:12.818Z,11.86
2022-08-12T00:26:59.777Z,11.82
2022-08-12T00:29:47.916Z,11.77
2022-08-12T00:32:35.621Z,11.75
2022-08-12T00:35:22.702Z,11.72
2022-08-12T00:38:12.744Z,11.72
2022-08-12T00:41:00.087Z,11.66
2022-08-12T00:43:27.870Z,11.71
2022-08-12T00:46:14.443Z,11.73
2022-08-12T00:48:42.174Z,11.73
2022-08-12T00:51:09.546Z,11.72
2022-08-12T00:53:37.533Z,11.75
2022-08-12T00:56:07.457Z,11.78
2022-08-12T00:58:35.033Z,11.83
2022-08-12T01:01:05.499Z,11.86
2022-08-12T01:03:59.646Z,11.88
2022-08-12T01:06:46.406Z,11.89
2022-08-12T01:09:38.246Z,11.95
2022-08-12T01:12:06.606Z,11.93
2022-08-12T01:14:33.928Z,11.95
2022-08-12T01:17:00.541Z,11.96
2022-08-12T01:19:27.308Z,11.98
2022-08-12T01:22:23.308Z,11.97
2022-08-12T01:25:29.733Z,11.97
2022-08-12T01:27:58.759Z,12.01
2022-08-12T01:30:27.049Z,12.02
2022-08-12T01:32:56.370Z,12.00
2022-08-12T01:35:24.181Z,12.04
2022-08-12T01:37:57.589Z,12.08
2022-08-12T01:40:34.879Z,12.09
2022-08-12T01:43:09.588Z,12.08
2022-08-12T01:45:46.404Z,12.08
2022-08-12T01:48:53.717Z,12.13
2022-08-12T01:52:15.217Z,12.18
2022-08-12T01:54:22.745Z,12.19
2022-08-12T01:57:13.418Z,12.23
2022-08-12T02:00:08.435Z,12.24
2022-08-12T02:02:48.377Z,12.24
2022-08-12T02:06:01.734Z,12.25
2022-08-12T02:09:14.566Z,12.24
2022-08-12T02:12:06.191Z,12.22
2022-08-12T02:14:53.218Z,12.18
2022-08-12T02:17:55.901Z,12.20
2022-08-12T02:20:52.526Z,12.05
2022-08-12T02:23:27.028Z,12.08
2022-08-12T02:25:58.388Z,12.10
2022-08-12T02:28:25.413Z,12.14
2022-08-12T02:30:52.027Z,12.14
2022-08-12T02:33:20.936Z,12.14
2022-08-12T02:35:48.361Z,12.11
2022-08-12T02:38:15.293Z,12.09
2022-08-12T02:40:47.832Z,12.08
2022-08-12T02:43:34.740Z,12.04
2022-08-12T02:46:14.020Z,12.01
2022-08-12T02:48:52.748Z,11.99
2022-08-12T02:51:23.844Z,12.01
2022-08-12T02:54:04.754Z,12.05
2022-08-12T02:56:40.258Z,12.05
2022-08-12T02:59:14.191Z,12.05
2022-08-12T03:01:49.931Z,12.06
2022-08-12T03:04:24.593Z,12.11
2022-08-12T03:07:05.146Z,12.13
2022-08-12T03:10:03.388Z,12.10
2022-08-12T03:12:25.006Z,12.06
2022-08-12T03:14:55.087Z,12.07
2022-08-12T03:17:30.598Z,12.08
2022-08-12T03:20:09.326Z,12.09
2022-08-12T03:22:42.204Z,12.01
2022-08-12T03:25:31.765Z,12.03
2022-08-12T03:27:58.463Z,12.07
2022-08-12T03:30:34.226Z,12.06
2022-08-12T03:33:02.830Z,11.99
2022-08-12T03:35:38.420Z,11.98
2022-08-12T03:38:12.249Z,11.99
2022-08-12T03:41:15.803Z,12.03
2022-08-12T03:44:16.977Z,11.96
2022-08-12T03:47:07.227Z,11.88
2022-08-12T03:49:54.321Z,11.89
2022-08-12T03:52:39.697Z,11.95
2022-08-12T03:55:25.441Z,12.00
2022-08-12T03:58:10.717Z,11.94
2022-08-12T04:00:38.294Z,11.90
2022-08-12T04:03:08.727Z,11.95
2022-08-12T04:05:55.592Z,11.97
2022-08-12T04:08:25.923Z,12.00
2022-08-12T04:11:14.759Z,11.94
2022-08-12T04:13:41.282Z,11.90
2022-08-12T04:16:10.780Z,11.88
2022-08-12T04:18:40.424Z,11.88
2022-08-12T04:21:10.075Z,11.92
2022-08-12T04:23:38.858Z,11.91
2022-08-12T04:26:06.720Z,11.84
2022-08-12T04:28:33.515Z,11.84
2022-08-12T04:31:00.069Z,11.84
2022-08-12T04:33:27.171Z,11.89
2022-08-12T04:35:54.741Z,11.97
2022-08-12T04:38:22.859Z,12.01
2022-08-12T04:40:49.800Z,12.01
2022-08-12T04:43:55.356Z,11.99
2022-08-12T04:46:04.245Z,11.98
2022-08-12T04:48:30.843Z,12.04
2022-08-12T04:50:58.410Z,12.07
2022-08-12T04:53:25.189Z,12.12
2022-08-12T04:55:52.324Z,12.17
2022-08-12T04:58:29.294Z,12.21
2022-08-12T05:00:56.590Z,12.26
2022-08-12T05:03:26.493Z,12.26
2022-08-12T05:05:56.682Z,12.29
2022-08-12T05:08:24.273Z,12.27
2022-08-12T05:10:51.118Z,12.25
2022-08-12T05:13:20.621Z,12.29
2022-08-12T05:16:05.097Z,12.27
2022-08-12T05:18:35.467Z,12.29
2022-08-12T05:21:09.856Z,12.33
2022-08-12T05:23:38.128Z,12.43
2022-08-12T05:26:06.203Z,12.51
2022-08-12T05:28:33.280Z,12.50
2022-08-12T05:31:01.871Z,12.56
2022-08-12T05:33:38.494Z,12.60
2022-08-12T05:36:09.667Z,12.64
2022-08-12T05:38:55.517Z,12.69
2022-08-12T05:41:32.843Z,12.70
2022-08-12T05:44:02.033Z,12.67
2022-08-12T05:46:29.133Z,12.64
2022-08-12T05:48:56.673Z,12.70
2022-08-12T05:51:28.833Z,12.72
2022-08-12T05:54:06.643Z,12.80
2022-08-12T05:56:35.548Z,12.85
2022-08-12T05:59:05.162Z,12.89
2022-08-12T06:02:11.859Z,12.96
2022-08-12T06:04:18.233Z,13.03
2022-08-12T06:06:51.326Z,13.07
2022-08-12T06:09:17.907Z,13.18
2022-08-12T06:12:04.805Z,13.22
2022-08-12T06:14:37.795Z,13.26
2022-08-12T06:17:08.842Z,13.37
2022-08-12T06:20:28.037Z,13.43
2022-08-12T06:22:22.555Z,13.51
2022-08-12T06:24:49.963Z,13.62
2022-08-12T06:27:18.902Z,13.71
2022-08-12T06:30:09.766Z,13.78
2022-08-12T06:32:32.163Z,13.90
2022-08-12T06:35:27.171Z,14.01
2022-08-12T06:37:57.148Z,14.14
2022-08-12T06:40:44.313Z,14.31
2022-08-12T06:43:11.210Z,14.46
2022-08-12T06:45:46.258Z,14.62
2022-08-12T06:48:13.866Z,14.72
2022-08-12T06:50:40.568Z,14.78
2022-08-12T06:53:09.418Z,14.88
2022-08-12T06:55:36.603Z,14.96
2022-08-12T06:58:07.725Z,15.02
2022-08-12T07:00:37.300Z,15.09
2022-08-12T07:03:16.332Z,15.23
2022-08-12T07:05:49.581Z,15.34
2022-08-12T07:08:18.034Z,15.41
2022-08-12T07:10:53.544Z,15.51
2022-08-12T07:13:20.558Z,15.66
2022-08-12T07:15:47.124Z,15.81
2022-08-12T07:18:19.638Z,15.96
2022-08-12T07:20:52.843Z,16.05
2022-08-12T07:23:20.392Z,16.10
2022-08-12T07:25:46.991Z,16.09
2022-08-12T07:28:19.579Z,16.11
2022-08-12T07:30:49.238Z,16.16
2022-08-12T07:33:17.149Z,16.23
2022-08-12T07:35:51.072Z,16.27
2022-08-12T07:38:28.996Z,16.38
2022-08-12T07:41:17.619Z,16.45
2022-08-12T07:43:51.280Z,16.53
2022-08-12T07:46:21.414Z,16.59
2022-08-12T07:48:50.970Z,16.59
2022-08-12T07:51:25.489Z,16.61
2022-08-12T07:54:00.897Z,16.65
2022-08-12T07:56:31.292Z,16.71
2022-08-12T07:58:59.297Z,16.78
2022-08-12T08:01:27.235Z,16.86
2022-08-12T08:04:17.921Z,16.96
2022-08-12T08:06:45.829Z,17.08
2022-08-12T08:09:15.431Z,17.17
2022-08-12T08:12:00.139Z,17.26
2022-08-12T08:14:29.157Z,17.37
2022-08-12T08:16:57.750Z,17.50
2022-08-12T08:19:26.105Z,17.59
2022-08-12T08:21:54.978Z,17.65
2022-08-12T08:24:28.074Z,17.77
2022-08-12T08:26:58.583Z,17.85
2022-08-12T08:29:25.954Z,17.93
2022-08-12T08:32:00.021Z,18.02
2022-08-12T08:34:27.725Z,18.12
2022-08-12T08:37:17.305Z,18.21
2022-08-12T08:39:44.263Z,18.32
2022-08-12T08:42:29.601Z,18.46
2022-08-12T08:44:58.877Z,18.52
2022-08-12T08:47:26.369Z,18.61
2022-08-12T08:49:53.869Z,18.73
2022-08-12T08:52:35.317Z,18.88
2022-08-12T08:55:14.556Z,19.16
2022-08-12T08:57:44.663Z,19.30
2022-08-12T09:00:22.190Z,19.42
2022-08-12T09:02:59.282Z,19.54
2022-08-12T09:05:27.812Z,19.68
2022-08-12T09:10:45.766Z,19.91
2022-08-12T09:13:29.232Z,20.03
2022-08-12T09:19:04.767Z,20.21
2022-08-12T09:21:54.552Z,20.29
2022-08-12T09:24:21.867Z,20.37
2022-08-12T09:26:49.429Z,20.45
2022-08-12T09:30:08.607Z,20.49
2022-08-12T09:32:11.605Z,20.53
2022-08-12T09:34:56.654Z,20.62
2022-08-12T09:37:28.366Z,20.65
2022-08-12T09:41:01.505Z,20.68
2022-08-12T09:43:21.740Z,20.67
2022-08-12T09:46:07.048Z,20.63
2022-08-12T09:48:39.205Z,20.67
2022-08-12T09:51:17.190Z,20.76
2022-08-12T09:53:50.653Z,20.84
2022-08-12T09:56:58.633Z,20.83
2022-08-12T10:00:13.623Z,20.78
2022-08-12T10:02:45.958Z,20.85
2022-08-12T10:04:59.644Z,20.99
2022-08-12T10:07:28.706Z,21.01
2022-08-12T10:10:08.056Z,20.91
2022-08-12T10:13:10.923Z,20.83
2022-08-12T10:16:02.373Z,20.96
2022-08-12T10:18:29.281Z,21.09
2022-08-12T10:20:57.658Z,21.11
2022-08-12T10:23:40.144Z,21.19
2022-08-12T10:26:37.378Z,21.28
2022-08-12T10:30:01.617Z,21.33
2022-08-12T10:32:21.511Z,21.33
2022-08-12T10:34:53.429Z,21.37
2022-08-12T10:38:34.992Z,21.38
2022-08-12T10:40:19.023Z,21.47
2022-08-12T10:43:05.203Z,21.58
2022-08-12T10:45:31.899Z,21.68
2022-08-12T10:48:19.898Z,21.76
2022-08-12T10:50:58.601Z,21.73
2022-08-12T10:53:45.823Z,21.74
2022-08-12T10:56:17.755Z,21.91
2022-08-12T10:58:47.254Z,22.51
2022-08-12T11:01:48.969Z,22.94
2022-08-12T11:04:24.519Z,23.19
2022-08-12T11:07:08.081Z,23.29
2022-08-12T11:09:55.567Z,23.28
2022-08-12T11:12:55.865Z,23.42
2022-08-12T11:15:18.816Z,23.52
2022-08-12T11:17:52.930Z,23.54
2022-08-12T11:20:24.318Z,23.62
2022-08-12T11:22:59.811Z,23.65
2022-08-12T11:25:56.762Z,23.71
2022-08-12T11:28:16.181Z,23.73
2022-08-12T11:30:44.091Z,23.61
2022-08-12T11:33:12.319Z,23.51
2022-08-12T11:35:50.675Z,23.46
2022-08-12T11:38:20.338Z,23.40
2022-08-12T11:40:47.100Z,23.31
2022-08-12T11:43:19.677Z,23.26
2022-08-12T11:45:47.585Z,23.26
2022-08-12T11:48:19.566Z,23.32
2022-08-12T11:50:53.647Z,23.43
2022-08-12T11:53:59.307Z,23.39
2022-08-12T11:56:07.606Z,23.46
2022-08-12T12:01:57.842Z,23.48
2022-08-12T12:02:02.690Z,23.43
2022-08-12T12:04:11.140Z,23.38
2022-08-12T12:06:37.801Z,23.37
2022-08-12T12:09:04.664Z,23.26
2022-08-12T12:11:48.534Z,23.22
2022-08-12T12:14:15.904Z,23.19
2022-08-12T12:16:49.995Z,23.19
2022-08-12T12:19:17.823Z,23.24
2022-08-12T12:21:48.194Z,23.23
2022-08-12T12:24:20.808Z,23.24
2022-08-12T12:27:00.146Z,23.36
2022-08-12T12:30:20.042Z,23.40
2022-08-12T12:32:16.099Z,23.41
2022-08-12T12:35:14.312Z,23.40
2022-08-12T12:38:04.169Z,23.52
2022-08-12T12:40:15.851Z,23.49
2022-08-12T12:42:56.793Z,23.37
2022-08-12T12:45:27.382Z,23.37
2022-08-12T12:47:55.041Z,23.42
2022-08-12T12:50:34.783Z,23.49
2022-08-12T12:53:02.247Z,23.42
2022-08-12T12:55:32.711Z,23.49
2022-08-12T12:58:04.914Z,23.48
2022-08-12T13:00:36.461Z,23.42
2022-08-12T13:03:03.027Z,23.49
2022-08-12T13:05:42.124Z,23.58
2022-08-12T13:08:28.617Z,23.71
2022-08-12T13:11:05.378Z,23.75
2022-08-12T13:14:08.820Z,23.65
2022-08-12T13:16:26.654Z,23.58
2022-08-12T13:18:53.904Z,23.59
2022-08-12T13:21:33.538Z,23.64
2022-08-12T13:24:09.585Z,23.62
2022-08-12T13:26:37.915Z,23.67
2022-08-12T13:29:04.509Z,23.78
2022-08-12T13:31:31.042Z,23.85
2022-08-12T13:34:33.550Z,23.83
2022-08-12T13:36:50.833Z,23.75
2022-08-12T13:39:21.381Z,23.73
2022-08-12T13:41:49.550Z,23.68
2022-08-12T13:44:16.508Z,23.68
2022-08-12T13:46:43.546Z,23.71
2022-08-12T13:49:54.579Z,23.76
2022-08-12T13:52:11.302Z,23.68
2022-08-12T13:54:37.897Z,23.81
2022-08-12T13:57:04.501Z,23.90
2022-08-12T13:59:48.532Z,23.87
2022-08-12T14:02:22.564Z,23.75
2022-08-12T14:04:56.576Z,23.61
2022-08-12T14:07:23.791Z,23.46
2022-08-12T14:10:11.544Z,23.26
2022-08-12T14:12:50.772Z,23.05
2022-08-12T14:15:20.976Z,23.08
2022-08-12T14:18:23.341Z,23.22
2022-08-12T14:20:52.664Z,23.33
2022-08-12T14:24:05.130Z,23.42
2022-08-12T14:26:14.269Z,23.55
2022-08-12T14:28:45.222Z,23.56
2022-08-12T14:31:27.926Z,23.40
2022-08-12T14:33:59.389Z,23.38
2022-08-12T14:36:26.877Z,23.40
2022-08-12T14:38:55.023Z,23.46
2022-08-12T14:41:36.645Z,23.55
2022-08-12T14:44:58.893Z,23.56
2022-08-12T14:47:00.671Z,23.57
2022-08-12T14:50:34.253Z,23.61
2022-08-12T14:52:55.607Z,23.56
2022-08-12T14:57:58.227Z,23.47
2022-08-12T15:00:50.805Z,23.46
2022-08-12T15:03:20.564Z,23.46
2022-08-12T15:06:06.459Z,23.35
2022-08-12T15:08:41.196Z,23.32
2022-08-12T15:11:13.671Z,23.33
2022-08-12T15:13:45.399Z,23.29
2022-08-12T15:16:13.239Z,23.36
2022-08-12T15:18:55.465Z,23.45
2022-08-12T15:22:38.382Z,23.53
2022-08-12T15:24:13.034Z,23.34
2022-08-12T15:26:40.940Z,23.23
2022-08-12T15:29:07.603Z,23.22
2022-08-12T15:32:01.894Z,23.22
2022-08-12T15:34:24.122Z,23.11
2022-08-12T15:36:55.244Z,23.05
2022-08-12T15:39:22.314Z,22.99
2022-08-12T15:41:50.596Z,22.91
2022-08-12T15:44:38.294Z,22.85
2022-08-12T15:47:04.555Z,22.82
2022-08-12T15:49:54.292Z,22.75
2022-08-12T15:52:27.759Z,22.84
2022-08-12T15:54:58.693Z,22.87
2022-08-12T15:57:26.636Z,22.86
2022-08-12T16:00:06.492Z,22.84
2022-08-12T16:02:50.485Z,22.73
2022-08-12T16:06:12.374Z,22.76
2022-08-12T16:08:17.188Z,22.85
2022-08-12T16:10:46.879Z,22.95
2022-08-12T16:13:18.242Z,23.01
2022-08-12T16:16:03.818Z,23.07
2022-08-12T16:18:35.665Z,23.07
2022-08-12T16:21:04.873Z,23.03
2022-08-12T16:23:51.825Z,22.93
2022-08-12T16:26:27.602Z,22.78
2022-08-12T16:29:09.238Z,22.70
2022-08-12T16:31:42.463Z,22.75
2022-08-12T16:34:26.017Z,22.68
2022-08-12T16:37:03.053Z,22.65
2022-08-12T16:39:59.859Z,22.69
2022-08-12T16:42:22.673Z,22.73
2022-08-12T16:44:55.411Z,22.65
2022-08-12T16:47:23.800Z,22.59
2022-08-12T16:49:55.665Z,22.58
2022-08-12T16:52:22.469Z,22.53
2022-08-12T16:54:50.109Z,22.51
2022-08-12T16:57:16.689Z,22.55
2022-08-12T16:59:54.070Z,22.62
2022-08-12T17:02:33.491Z,22.55
2022-08-12T17:05:03.571Z,22.55
2022-08-12T17:07:36.651Z,22.53
2022-08-12T17:10:06.001Z,22.45
2022-08-12T17:12:32.704Z,22.36
2022-08-12T17:14:59.502Z,22.18
2022-08-12T17:17:39.368Z,22.05
2022-08-12T17:20:37.579Z,21.95
2022-08-12T17:22:56.521Z,21.91
2022-08-12T17:25:24.528Z,21.95
2022-08-12T17:27:57.303Z,21.95
2022-08-12T17:30:24.551Z,21.86
2022-08-12T17:32:53.394Z,21.70
2022-08-12T17:35:37.492Z,21.62
2022-08-12T17:38:07.290Z,21.62
2022-08-12T17:40:38.460Z,21.59
2022-08-12T17:43:54.832Z,21.55
2022-08-12T17:45:58.682Z,21.56
2022-08-12T17:48:34.833Z,21.60
2022-08-12T17:51:07.104Z,21.60
2022-08-12T17:54:05.923Z,21.57
2022-08-12T17:56:31.995Z,21.53
2022-08-12T17:59:00.286Z,21.57
2022-08-12T18:01:29.125Z,21.59
2022-08-12T18:04:21.030Z,21.60
2022-08-12T18:06:50.452Z,21.55
2022-08-12T18:09:18.011Z,21.50
2022-08-12T18:12:07.719Z,21.45
2022-08-12T18:14:36.972Z,21.34
2022-08-12T18:17:08.471Z,21.24
2022-08-12T18:20:05.505Z,21.14
2022-08-12T18:22:31.290Z,21.02
2022-08-12T18:26:15.768Z,20.93
2022-08-12T18:28:29.097Z,20.84
2022-08-12T18:31:02.239Z,20.74
2022-08-12T18:33:29.985Z,20.62
2022-08-12T18:36:13.300Z,20.55
2022-08-12T18:38:41.425Z,20.49
2022-08-12T18:41:33.657Z,20.41
2022-08-12T18:44:09.918Z,20.30
2022-08-12T18:46:53.925Z,20.26
2022-08-12T18:49:39.300Z,20.20
2022-08-12T18:52:07.690Z,20.12
2022-08-12T18:54:41.526Z,20.06
2022-08-12T18:58:06.019Z,19.98
2022-08-12T19:00:18.717Z,19.93
2022-08-12T19:02:53.269Z,19.84
2022-08-12T19:05:20.353Z,19.81
2022-08-12T19:08:00.939Z,19.77
2022-08-12T19:10:32.210Z,19.68
2022-08-12T19:13:23.434Z,19.61
2022-08-12T19:15:53.566Z,19.52
2022-08-12T19:18:22.157Z,19.40
2022-08-12T19:20:50.363Z,19.37
2022-08-12T19:23:21.315Z,19.34
2022-08-12T19:26:00.521Z,19.23
2022-08-12T19:28:34.675Z,19.19
2022-08-12T19:31:58.480Z,19.16
2022-08-12T19:35:06.537Z,19.16
2022-08-12T19:37:22.983Z,19.13
2022-08-12T19:40:10.121Z,19.03
2022-08-12T19:42:48.364Z,18.99
2022-08-12T19:45:20.293Z,18.96
2022-08-12T19:47:48.890Z,18.90
2022-08-12T19:50:20.293Z,18.84
2022-08-12T19:52:51.063Z,18.77
2022-08-12T19:55:22.234Z,18.74
2022-08-12T19:58:02.409Z,18.71
2022-08-12T20:00:31.294Z,18.72
2022-08-12T20:03:00.694Z,18.71
2022-08-12T20:06:07.830Z,18.71
2022-08-12T20:08:31.633Z,18.67
2022-08-12T20:12:12.293Z,18.68
2022-08-12T20:14:01.507Z,18.63
2022-08-12T20:16:52.183Z,18.48
2022-08-12T20:19:16.275Z,18.38
2022-08-12T20:21:44.502Z,18.44
2022-08-12T20:24:14.194Z,18.49
2022-08-12T20:26:42.182Z,18.51
2022-08-12T20:29:12.581Z,18.50
2022-08-12T20:31:40.780Z,18.52
2022-08-12T20:34:08.513Z,18.38
2022-08-12T20:36:40.713Z,18.41
2022-08-12T20:39:34.401Z,18.45
2022-08-12T20:42:00.029Z,18.46
2022-08-12T20:44:27.217Z,18.43
2022-08-12T20:46:59.103Z,18.44
2022-08-12T20:49:26.461Z,18.41
2022-08-12T20:51:59.366Z,18.42
2022-08-12T20:54:33.997Z,18.41
2022-08-12T20:57:02.010Z,18.38
2022-08-12T20:59:48.085Z,18.39
2022-08-12T21:02:24.643Z,18.38
2022-08-12T21:05:19.977Z,18.40
2022-08-12T21:07:51.955Z,18.33
2022-08-12T21:10:20.579Z,18.33
2022-08-12T21:12:48.234Z,18.30
2022-08-12T21:15:23.837Z,18.28
2022-08-12T21:18:15.429Z,18.29
2022-08-12T21:20:52.503Z,18.27
2022-08-12T21:23:21.486Z,18.23
2022-08-12T21:25:49.307Z,18.22
2022-08-12T21:28:20.820Z,18.18
2022-08-12T21:31:10.837Z,18.15
2022-08-12T21:34:06.256Z,18.16
2022-08-12T21:36:34.234Z,18.15
2022-08-12T21:39:19.277Z,18.15
2022-08-12T21:41:51.476Z,18.08
2022-08-12T21:44:24.411Z,18.04
2022-08-12T21:47:21.383Z,18.02
2022-08-12T21:50:06.682Z,18.01
2022-08-12T21:52:36.003Z,17.96
2022-08-12T21:55:08.116Z,17.94
2022-08-12T21:57:51.081Z,17.92
2022-08-12T22:00:32.537Z,17.88
2022-08-12T22:04:01.432Z,17.88
2022-08-12T22:06:25.992Z,17.80
2022-08-12T22:09:02.126Z,17.75
2022-08-12T22:11:41.475Z,17.70
2022-08-12T22:14:21.796Z,17.67
2022-08-12T22:16:53.198Z,17.70
2022-08-12T22:19:21.088Z,17.68
2022-08-12T22:21:53.506Z,17.65
2022-08-12T22:24:26.230Z,17.62
2022-08-12T22:26:56.497Z,17.50
2022-08-12T22:29:42.450Z,17.45
2022-08-12T22:32:11.934Z,17.41
2022-08-12T22:34:39.289Z,17.41
2022-08-12T22:37:11.346Z,17.40
2022-08-12T22:39:46.135Z,17.36
2022-08-12T22:42:34.022Z,17.36
2022-08-12T22:45:19.132Z,17.28
2022-08-12T22:47:55.145Z,17.23
2022-08-12T22:50:29.587Z,17.19
2022-08-12T22:53:15.858Z,17.16
2022-08-12T22:56:05.784Z,17.16
2022-08-12T22:58:33.749Z,17.16
2022-08-12T23:01:02.181Z,17.11
2022-08-12T23:03:48.601Z,17.09
2022-08-12T23:06:23.839Z,17.05
2022-08-12T23:08:51.887Z,17.02
2022-08-12T23:11:23.249Z,16.98
2022-08-12T23:14:00.822Z,16.92
2022-08-12T23:16:33.537Z,16.86
2022-08-12T23:19:18.199Z,16.90
2022-08-12T23:22:05.826Z,16.89
2022-08-12T23:24:54.048Z,16.86
2022-08-12T23:27:50.336Z,16.81
2022-08-12T23:30:32.104Z,16.82
2022-08-12T23:33:13.160Z,16.87
2022-08-12T23:35:58.830Z,16.89
2022-08-12T23:38:31.626Z,16.82
2022-08-12T23:41:03.596Z,16.84
2022-08-12T23:43:40.500Z,16.88
2022-08-12T23:46:10.969Z,16.92
2022-08-12T23:48:38.802Z,16.92
2022-08-12T23:51:22.705Z,16.93
2022-08-12T23:53:54.891Z,16.90
2022-08-12T23:56:23.623Z,16.85
2022-08-12T23:58:52.846Z,16.89
